createdAt,value
2022-09-03T00:01:26.797Z,101172.63
2022-09-03T00:04:25.782Z,101172.36
2022-09-03T00:07:35.734Z,101171.71
2022-09-03T00:10:19.261Z,101173.46
2022-09-03T00:12:54.472Z,101176.78
2022-09-03T00:15:27.043Z,101176.31
2022-09-03T00:18:35.061Z,101171.77
2022-09-03T00:21:21.253Z,101169.58
2022-09-03T00:24:25.195Z,101167.98
2022-09-03T00:27:21.499Z,101167.05
2022-09-03T00:30:09.406Z,101168.35
2022-09-03T00:32:53.896Z,101168.66
2022-09-03T00:35:51.976Z,101172.94
2022-09-03T00:38:37.821Z,101179.78
2022-09-03T00:41:38.688Z,101192.15
2022-09-03T00:45:39.644Z,101194.48
2022-09-03T00:49:01.944Z,101191.67
2022-09-03T00:51:51.347Z,101209.05
2022-09-03T00:54:51.070Z,101213.14
2022-09-03T00:57:56.071Z,101213.85
2022-09-03T01:00:37.184Z,101217.73
2022-09-03T01:03:26.452Z,101213.55
2022-09-03T01:06:32.412Z,101214.38
2022-09-03T01:09:19.568Z,101210.36
2022-09-03T01:11:59.758Z,101208.42
2022-09-03T01:15:01.305Z,101206.98
2022-09-03T01:17:51.131Z,101209.80
2022-09-03T01:20:29.114Z,101204.17
2022-09-03T01:23:45.821Z,101206.13
2022-09-03T01:26:33.772Z,101203.26
2022-09-03T01:29:39.683Z,101202.23
2022-09-03T01:32:48.088Z,101202.53
2022-09-03T01:35:38.709Z,101205.06
2022-09-03T01:38:44.786Z,101208.05
2022-09-03T01:42:36.855Z,101207.06
2022-09-03T01:45:29.506Z,101207.83
2022-09-03T01:48:38.431Z,101208.40
2022-09-03T01:51:25.629Z,101210.46
2022-09-03T01:54:28.691Z,101211.03
2022-09-03T01:57:56.394Z,101209.41
2022-09-03T02:00:51.722Z,101208.78
2022-09-03T02:03:36.448Z,101205.59
2022-09-03T02:06:12.960Z,101204.65
2022-09-03T02:08:47.716Z,101204.70
2022-09-03T02:11:25.697Z,101204.01
2022-09-03T02:14:37.844Z,101206.42
2022-09-03T02:17:36.096Z,101209.80
2022-09-03T02:20:34.627Z,101205.59
2022-09-03T02:23:38.570Z,101209.74
2022-09-03T02:26:55.995Z,101206.95
2022-09-03T02:30:22.585Z,101212.65
2022-09-03T02:33:04.399Z,101210.04
2022-09-03T02:35:43.332Z,101205.69
2022-09-03T02:38:28.687Z,101198.08
2022-09-03T02:41:40.476Z,101194.23
2022-09-03T02:44:41.284Z,101194.98
2022-09-03T02:47:32.159Z,101192.59
2022-09-03T02:50:13.303Z,101192.74
2022-09-03T02:53:05.748Z,101192.67
2022-09-03T02:56:01.185Z,101193.27
2022-09-03T02:58:35.423Z,101192.95
2022-09-03T03:01:28.196Z,101193.91
2022-09-03T03:04:09.889Z,101196.04
2022-09-03T03:06:52.788Z,101209.35
2022-09-03T03:09:38.329Z,101211.98
2022-09-03T03:12:26.671Z,101210.52
2022-09-03T03:15:07.790Z,101210.84
2022-09-03T03:17:47.841Z,101210.14
2022-09-03T03:20:50.527Z,101208.38
2022-09-03T03:23:37.752Z,101206.51
2022-09-03T03:26:32.630Z,101208.71
2022-09-03T03:29:22.942Z,101203.48
2022-09-03T03:32:35.335Z,101201.73
2022-09-03T03:35:24.192Z,101202.05
2022-09-03T03:38:11.777Z,101205.98
2022-09-03T03:40:56.496Z,101210.19
2022-09-03T03:43:33.462Z,101215.96
2022-09-03T03:46:24.228Z,101219.13
2022-09-03T03:49:15.944Z,101217.04
2022-09-03T03:52:08.108Z,101212.89
2022-09-03T03:54:52.188Z,101213.10
2022-09-03T03:57:48.217Z,101210.17
2022-09-03T04:00:49.906Z,101210.52
2022-09-03T04:04:02.191Z,101207.94
2022-09-03T04:06:45.653Z,101203.28
2022-09-03T04:09:33.372Z,101203.46
2022-09-03T04:12:10.358Z,101200.15
2022-09-03T04:14:43.236Z,101195.61
2022-09-03T04:17:16.470Z,101198.60
2022-09-03T04:19:50.949Z,101201.85
2022-09-03T04:22:51.959Z,101207.48
2022-09-03T04:25:36.466Z,101208.58
2022-09-03T04:28:45.990Z,101210.19
2022-09-03T04:31:27.608Z,101212.55
2022-09-03T04:34:15.624Z,101215.73
2022-09-03T04:37:06.399Z,101213.36
2022-09-03T04:40:01.031Z,101214.44
2022-09-03T04:42:57.634Z,101218.33
2022-09-03T04:46:06.617Z,101217.27
2022-09-03T04:48:41.700Z,101217.56
2022-09-03T04:51:16.431Z,101219.10
2022-09-03T04:54:19.006Z,101215.95
2022-09-03T04:56:56.201Z,101213.14
2022-09-03T04:59:46.615Z,101213.39
2022-09-03T05:02:48.813Z,101212.46
2022-09-03T05:06:03.907Z,101214.38
2022-09-03T05:09:24.532Z,101215.23
2022-09-03T05:11:54.858Z,101214.98
2022-09-03T05:15:05.750Z,101212.19
2022-09-03T05:17:57.760Z,101215.17
2022-09-03T05:20:36.499Z,101216.84
2022-09-03T05:23:13.555Z,101217.67
2022-09-03T05:25:59.531Z,101220.11
2022-09-03T05:28:38.104Z,101219.77
2022-09-03T05:31:22.374Z,101224.09
2022-09-03T05:34:26.239Z,101222.71
2022-09-03T05:37:06.931Z,101226.14
2022-09-03T05:39:48.210Z,101224.86
2022-09-03T05:42:40.107Z,101225.41
2022-09-03T05:45:39.116Z,101220.91
2022-09-03T05:48:37.833Z,101225.61
2022-09-03T05:51:29.225Z,101229.85
2022-09-03T05:54:32.317Z,101229.89
2022-09-03T05:57:13.392Z,101233.73
2022-09-03T06:00:07.795Z,101236.30
2022-09-03T06:02:51.007Z,101235.89
2022-09-03T06:05:41.299Z,101235.48
2022-09-03T06:09:09.480Z,101233.27
2022-09-03T06:12:10.085Z,101232.91
2022-09-03T06:15:34.069Z,101237.83
2022-09-03T06:18:23.122Z,101235.27
2022-09-03T06:21:07.689Z,101229.25
2022-09-03T06:23:36.916Z,101230.95
2022-09-03T06:26:09.341Z,101228.44
2022-09-03T06:28:43.548Z,101230.73
2022-09-03T06:31:14.899Z,101234.10
2022-09-03T06:33:44.205Z,101234.45
2022-09-03T06:36:15.819Z,101238.52
2022-09-03T06:38:55.354Z,101240.87
2022-09-03T06:41:35.907Z,101240.83
2022-09-03T06:44:20.705Z,101245.27
2022-09-03T06:47:35.684Z,101243.31
2022-09-03T06:50:08.294Z,101245.42
2022-09-03T06:53:00.355Z,101245.77
2022-09-03T06:55:55.615Z,101247.96
2022-09-03T06:58:43.815Z,101246.74
2022-09-03T07:01:33.861Z,101250.83
2022-09-03T07:04:21.350Z,101252.25
2022-09-03T07:06:53.486Z,101252.77
2022-09-03T07:09:25.424Z,101251.30
2022-09-03T07:11:59.733Z,101248.70
2022-09-03T07:14:34.013Z,101251.31
2022-09-03T07:17:25.741Z,101254.46
2022-09-03T07:19:59.924Z,101255.52
2022-09-03T07:22:31.814Z,101256.70
2022-09-03T07:25:03.980Z,101255.66
2022-09-03T07:27:34.803Z,101262.45
2022-09-03T07:30:03.986Z,101266.96
2022-09-03T07:32:34.515Z,101268.92
2022-09-03T07:35:03.435Z,101268.46
2022-09-03T07:37:31.989Z,101265.93
2022-09-03T07:40:02.118Z,101267.43
2022-09-03T07:42:36.329Z,101267.70
2022-09-03T07:45:12.888Z,101268.88
2022-09-03T07:47:51.443Z,101266.46
2022-09-03T07:50:20.572Z,101268.61
2022-09-03T07:52:57.490Z,101270.63
2022-09-03T07:55:29.357Z,101276.27
2022-09-03T07:58:07.603Z,101272.68
2022-09-03T08:00:40.109Z,101274.73
2022-09-03T08:03:11.814Z,101281.08
2022-09-03T08:05:42.857Z,101285.17
2022-09-03T08:08:15.513Z,101289.52
2022-09-03T08:10:45.256Z,101290.27
2022-09-03T08:13:14.031Z,101294.88
2022-09-03T08:15:43.247Z,101295.88
2022-09-03T08:18:16.002Z,101301.39
2022-09-03T08:21:10.594Z,101301.52
2022-09-03T08:23:41.169Z,101305.20
2022-09-03T08:26:10.511Z,101303.52
2022-09-03T08:28:39.525Z,101304.38
2022-09-03T08:31:13.114Z,101303.45
2022-09-03T08:33:44.325Z,101310.27
2022-09-03T08:36:17.589Z,101306.70
2022-09-03T08:38:47.063Z,101307.75
2022-09-03T08:41:44.636Z,101307.04
2022-09-03T08:44:49.606Z,101305.31
2022-09-03T08:47:28.834Z,101301.52
2022-09-03T08:50:18.383Z,101303.10
2022-09-03T08:52:50.721Z,101302.69
2022-09-03T08:55:25.966Z,101306.80
2022-09-03T08:58:14.825Z,101302.05
2022-09-03T09:01:08.124Z,101301.29
2022-09-03T09:04:14.154Z,101303.36
2022-09-03T09:07:09.765Z,101304.26
2022-09-03T09:09:51.147Z,101305.48
2022-09-03T09:12:22.394Z,101305.98
2022-09-03T09:15:16.224Z,101306.94
2022-09-03T09:18:18.166Z,101306.86
2022-09-03T09:21:21.931Z,101305.38
2022-09-03T09:24:02.846Z,101306.70
2022-09-03T09:26:32.115Z,101313.00
2022-09-03T09:29:10.642Z,101310.20
2022-09-03T09:31:42.239Z,101303.40
2022-09-03T09:34:21.825Z,101310.46
2022-09-03T09:36:56.543Z,101313.65
2022-09-03T09:39:28.411Z,101305.70
2022-09-03T09:42:12.820Z,101306.61
2022-09-03T09:44:44.923Z,101309.30
2022-09-03T09:47:23.143Z,101315.23
2022-09-03T09:49:53.470Z,101314.16
2022-09-03T09:52:26.147Z,101313.02
2022-09-03T09:55:15.137Z,101307.25
2022-09-03T09:57:45.022Z,101313.27
2022-09-03T10:00:17.134Z,101312.98
2022-09-03T10:02:51.960Z,101309.42
2022-09-03T10:05:37.888Z,101306.69
2022-09-03T10:08:22.185Z,101304.33
2022-09-03T10:10:52.178Z,101303.20
2022-09-03T10:13:42.026Z,101302.95
2022-09-03T10:16:35.103Z,101297.42
2022-09-03T10:19:19.742Z,101301.18
2022-09-03T10:21:59.740Z,101299.50
2022-09-03T10:25:01.294Z,101302.90
2022-09-03T10:27:30.240Z,101305.96
2022-09-03T10:30:00.820Z,101301.96
2022-09-03T10:32:58.532Z,101300.94
2022-09-03T10:35:46.547Z,101303.98
2022-09-03T10:38:30.269Z,101299.11
2022-09-03T10:41:24.863Z,101295.73
2022-09-03T10:44:26.194Z,101292.33
2022-09-03T10:47:19.997Z,101290.77
2022-09-03T10:49:54.606Z,101287.33
2022-09-03T10:52:33.844Z,101284.52
2022-09-03T10:55:19.733Z,101285.20
2022-09-03T10:58:08.044Z,101288.85
2022-09-03T11:00:41.743Z,101294.67
2022-09-03T11:03:27.856Z,101289.15
2022-09-03T11:05:56.543Z,101283.85
2022-09-03T11:08:36.595Z,101286.25
2022-09-03T11:11:27.999Z,101284.66
2022-09-03T11:14:09.397Z,101282.59
2022-09-03T11:16:51.090Z,101278.02
2022-09-03T11:19:27.811Z,101278.02
2022-09-03T11:21:57.173Z,101272.50
2022-09-03T11:24:35.372Z,101269.14
2022-09-03T11:27:38.605Z,101278.49
2022-09-03T11:30:09.738Z,101271.45
2022-09-03T11:32:52.954Z,101271.83
2022-09-03T11:35:38.623Z,101269.66
2022-09-03T11:38:21.642Z,101263.81
2022-09-03T11:41:04.784Z,101271.90
2022-09-03T11:43:37.247Z,101269.05
2022-09-03T11:46:23.617Z,101272.02
2022-09-03T11:48:56.630Z,101270.65
2022-09-03T11:51:33.143Z,101261.95
2022-09-03T11:54:14.584Z,101262.33
2022-09-03T11:56:43.372Z,101255.39
2022-09-03T11:59:27.309Z,101252.84
2022-09-03T12:02:28.190Z,101253.83
2022-09-03T12:05:10.034Z,101251.64
2022-09-03T12:08:24.741Z,101251.62
2022-09-03T12:10:56.025Z,101249.31
2022-09-03T12:13:24.812Z,101253.30
2022-09-03T12:16:12.098Z,101250.20
2022-09-03T12:18:45.875Z,101246.07
2022-09-03T12:21:18.147Z,101251.16
2022-09-03T12:23:58.161Z,101249.79
2022-09-03T12:26:27.841Z,101251.73
2022-09-03T12:28:59.257Z,101250.00
2022-09-03T12:31:44.634Z,101248.71
2022-09-03T12:34:16.498Z,101245.26
2022-09-03T12:36:48.153Z,101248.41
2022-09-03T12:40:04.756Z,101245.69
2022-09-03T12:42:17.264Z,101246.86
2022-09-03T12:44:46.270Z,101242.59
2022-09-03T12:47:38.371Z,101245.27
2022-09-03T12:50:21.117Z,101235.70
2022-09-03T12:52:59.119Z,101233.71
2022-09-03T12:55:55.252Z,101230.48
2022-09-03T12:58:32.184Z,101231.07
2022-09-03T13:01:22.046Z,101231.76
2022-09-03T13:03:58.134Z,101224.98
2022-09-03T13:06:33.456Z,101223.71
2022-09-03T13:09:06.838Z,101217.06
2022-09-03T13:11:39.391Z,101220.64
2022-09-03T13:14:13.180Z,101216.33
2022-09-03T13:16:50.396Z,101219.76
2022-09-03T13:19:37.664Z,101210.66
2022-09-03T13:22:15.129Z,101209.98
2022-09-03T13:25:21.755Z,101199.94
2022-09-03T13:28:08.015Z,101197.73
2022-09-03T13:31:15.721Z,101191.22
2022-09-03T13:33:50.125Z,101204.98
2022-09-03T13:36:26.194Z,101201.44
2022-09-03T13:39:29.076Z,101200.89
2022-09-03T13:42:10.124Z,101200.85
2022-09-03T13:45:06.916Z,101206.73
2022-09-03T13:48:05.834Z,101201.80
2022-09-03T13:51:04.097Z,101201.36
2022-09-03T13:53:48.975Z,101196.66
2022-09-03T13:56:43.268Z,101193.35
2022-09-03T13:59:41.812Z,101188.05
2022-09-03T14:02:28.803Z,101190.25
2022-09-03T14:05:10.530Z,101189.70
2022-09-03T14:08:10.202Z,101192.12
2022-09-03T14:11:17.226Z,101188.92
2022-09-03T14:13:55.282Z,101189.81
2022-09-03T14:16:45.101Z,101190.20
2022-09-03T14:19:35.230Z,101187.57
2022-09-03T14:22:46.271Z,101186.34
2022-09-03T14:25:30.867Z,101180.52
2022-09-03T14:28:21.230Z,101178.65
2022-09-03T14:31:44.679Z,101175.77
2022-09-03T14:34:35.091Z,101174.11
2022-09-03T14:37:26.096Z,101177.86
2022-09-03T14:39:56.886Z,101175.87
2022-09-03T14:42:32.724Z,101174.89
2022-09-03T14:45:29.096Z,101171.89
2022-09-03T14:48:31.474Z,101169.55
2022-09-03T14:51:36.296Z,101170.74
2022-09-03T14:54:19.287Z,101165.61
2022-09-03T14:57:17.507Z,101167.47
2022-09-03T15:00:19.652Z,101163.13
2022-09-03T15:02:51.802Z,101165.85
2022-09-03T15:05:42.652Z,101164.42
2022-09-03T15:08:34.129Z,101168.02
2022-09-03T15:11:10.884Z,101163.66
2022-09-03T15:13:48.910Z,101162.77
2022-09-03T15:16:23.215Z,101163.70
2022-09-03T15:19:18.713Z,101158.67
2022-09-03T15:22:09.866Z,101161.06
2022-09-03T15:25:01.040Z,101157.05
2022-09-03T15:27:42.143Z,101160.20
2022-09-03T15:30:19.322Z,101157.65
2022-09-03T15:33:26.051Z,101156.59
2022-09-03T15:36:27.623Z,101156.55
2022-09-03T15:39:31.235Z,101153.44
2022-09-03T15:42:09.787Z,101149.70
2022-09-03T15:45:06.064Z,101153.22
2022-09-03T15:47:54.532Z,101156.95
2022-09-03T15:50:55.797Z,101159.27
2022-09-03T15:53:45.086Z,101155.05
2022-09-03T15:56:23.682Z,101158.16
2022-09-03T15:59:01.830Z,101162.56
2022-09-03T16:01:43.527Z,101163.66
2022-09-03T16:04:26.115Z,101164.30
2022-09-03T16:07:04.118Z,101164.77
2022-09-03T16:10:23.843Z,101162.22
2022-09-03T16:13:28.224Z,101166.64
2022-09-03T16:16:06.791Z,101160.11
2022-09-03T16:18:55.907Z,101165.88
2022-09-03T16:21:54.896Z,101163.44
2022-09-03T16:24:46.833Z,101168.02
2022-09-03T16:27:57.403Z,101168.67
2022-09-03T16:30:48.309Z,101171.86
2022-09-03T16:33:28.974Z,101169.98
2022-09-03T16:36:26.459Z,101166.59
